METAR Formatted Surface Weather Observation
Issued by NWS

Home | Current Version | Previous Version | Text Only | Print | Product List | Glossary On
Versions: 1 2 3 4 5 6 7 8 9 10
599
SAUS45 KSLC 241811
MTRU16
METAR KU16 241758Z AUTO 22010KT 10SM BKN120 28/01 A2975
RMK AO2 SLP707 T02780011 10278 20133 58015 $



USA.gov is the U.S. government's official web portal to all federal, state and local government web resources and services.